sensor_id;sensor_type;location;lat;lon;timestamp;P1;durP1;ratioP1;P2;durP2;ratioP2
74551;SDS011;63025;55.472;38.432;2022-08-25T00:01:35;11.70;;;8.00;;
74551;SDS011;63025;55.472;38.432;2022-08-25T00:04:07;13.10;;;8.27;;
74551;SDS011;63025;55.472;38.432;2022-08-25T00:06:35;11.95;;;8.20;;
74551;SDS011;63025;55.472;38.432;2022-08-25T00:09:02;16.20;;;8.90;;
74551;SDS011;63025;55.472;38.432;2022-08-25T00:11:31;13.32;;;7.85;;
74551;SDS011;63025;55.472;38.432;2022-08-25T00:13:59;12.02;;;8.00;;
74551;SDS011;63025;55.472;38.432;2022-08-25T00:16:29;12.18;;;8.15;;
74551;SDS011;63025;55.472;38.432;2022-08-25T00:19:03;13.05;;;8.13;;
74551;SDS011;63025;55.472;38.432;2022-08-25T00:21:31;13.17;;;7.83;;
74551;SDS011;63025;55.472;38.432;2022-08-25T00:23:57;15.38;;;8.05;;
74551;SDS011;63025;55.472;38.432;2022-08-25T00:26:24;12.23;;;7.50;;
74551;SDS011;63025;55.472;38.432;2022-08-25T00:28:51;11.00;;;7.50;;
74551;SDS011;63025;55.472;38.432;2022-08-25T00:31:18;10.82;;;7.07;;
74551;SDS011;63025;55.472;38.432;2022-08-25T00:33:46;10.30;;;7.18;;
74551;SDS011;63025;55.472;38.432;2022-08-25T00:36:12;10.90;;;7.30;;
74551;SDS011;63025;55.472;38.432;2022-08-25T00:38:39;12.85;;;7.57;;
74551;SDS011;63025;55.472;38.432;2022-08-25T00:41:05;13.95;;;8.27;;
74551;SDS011;63025;55.472;38.432;2022-08-25T00:43:55;11.48;;;7.70;;
74551;SDS011;63025;55.472;38.432;2022-08-25T00:46:26;14.90;;;7.93;;
74551;SDS011;63025;55.472;38.432;2022-08-25T00:48:59;11.93;;;7.88;;
74551;SDS011;63025;55.472;38.432;2022-08-25T00:53:57;13.13;;;7.43;;
74551;SDS011;63025;55.472;38.432;2022-08-25T00:56:24;12.40;;;7.80;;
74551;SDS011;63025;55.472;38.432;2022-08-25T00:58:51;14.10;;;8.00;;
74551;SDS011;63025;55.472;38.432;2022-08-25T01:01:17;14.82;;;7.53;;
74551;SDS011;63025;55.472;38.432;2022-08-25T01:03:43;12.48;;;7.55;;
74551;SDS011;63025;55.472;38.432;2022-08-25T01:06:08;11.00;;;7.32;;
74551;SDS011;63025;55.472;38.432;2022-08-25T01:08:35;11.27;;;7.30;;
74551;SDS011;63025;55.472;38.432;2022-08-25T01:11:03;11.00;;;7.40;;
74551;SDS011;63025;55.472;38.432;2022-08-25T01:13:33;12.35;;;7.75;;
74551;SDS011;63025;55.472;38.432;2022-08-25T01:16:02;10.70;;;7.07;;
74551;SDS011;63025;55.472;38.432;2022-08-25T01:18:30;12.50;;;7.10;;
74551;SDS011;63025;55.472;38.432;2022-08-25T01:21:07;14.73;;;7.38;;
74551;SDS011;63025;55.472;38.432;2022-08-25T01:23:33;12.02;;;7.00;;
74551;SDS011;63025;55.472;38.432;2022-08-25T01:26:00;11.00;;;7.72;;
74551;SDS011;63025;55.472;38.432;2022-08-25T01:28:32;12.98;;;7.18;;
74551;SDS011;63025;55.472;38.432;2022-08-25T01:30:59;13.95;;;7.70;;
74551;SDS011;63025;55.472;38.432;2022-08-25T01:33:25;10.95;;;6.75;;
74551;SDS011;63025;55.472;38.432;2022-08-25T01:35:51;13.13;;;6.90;;
74551;SDS011;63025;55.472;38.432;2022-08-25T01:38:17;11.88;;;7.18;;
74551;SDS011;63025;55.472;38.432;2022-08-25T01:40:45;11.70;;;7.57;;
74551;SDS011;63025;55.472;38.432;2022-08-25T01:45:41;11.75;;;7.20;;
74551;SDS011;63025;55.472;38.432;2022-08-25T01:48:09;11.13;;;7.20;;
74551;SDS011;63025;55.472;38.432;2022-08-25T01:50:36;11.95;;;7.10;;
74551;SDS011;63025;55.472;38.432;2022-08-25T01:53:03;12.10;;;7.70;;
74551;SDS011;63025;55.472;38.432;2022-08-25T01:55:35;10.52;;;7.20;;
74551;SDS011;63025;55.472;38.432;2022-08-25T01:58:21;12.75;;;7.78;;
74551;SDS011;63025;55.472;38.432;2022-08-25T02:00:49;12.48;;;8.05;;
74551;SDS011;63025;55.472;38.432;2022-08-25T02:03:18;11.88;;;7.60;;
74551;SDS011;63025;55.472;38.432;2022-08-25T02:05:44;13.55;;;8.02;;
74551;SDS011;63025;55.472;38.432;2022-08-25T02:08:10;13.98;;;7.57;;
74551;SDS011;63025;55.472;38.432;2022-08-25T02:10:37;13.95;;;7.93;;
74551;SDS011;63025;55.472;38.432;2022-08-25T02:13:03;16.65;;;8.88;;
74551;SDS011;63025;55.472;38.432;2022-08-25T02:15:30;15.25;;;8.80;;
74551;SDS011;63025;55.472;38.432;2022-08-25T02:17:56;13.18;;;8.05;;
74551;SDS011;63025;55.472;38.432;2022-08-25T02:20:22;15.18;;;8.70;;
74551;SDS011;63025;55.472;38.432;2022-08-25T02:22:49;13.75;;;9.05;;
74551;SDS011;63025;55.472;38.432;2022-08-25T02:25:16;14.45;;;8.38;;
74551;SDS011;63025;55.472;38.432;2022-08-25T02:27:42;16.23;;;9.15;;
74551;SDS011;63025;55.472;38.432;2022-08-25T02:30:08;15.35;;;8.95;;
74551;SDS011;63025;55.472;38.432;2022-08-25T02:32:34;15.55;;;8.80;;
74551;SDS011;63025;55.472;38.432;2022-08-25T02:35:00;14.07;;;8.95;;
74551;SDS011;63025;55.472;38.432;2022-08-25T02:37:27;14.75;;;8.90;;
74551;SDS011;63025;55.472;38.432;2022-08-25T02:39:53;15.23;;;8.75;;
74551;SDS011;63025;55.472;38.432;2022-08-25T02:42:19;13.73;;;8.77;;
74551;SDS011;63025;55.472;38.432;2022-08-25T02:44:46;16.17;;;9.27;;
74551;SDS011;63025;55.472;38.432;2022-08-25T02:47:12;13.43;;;8.60;;
74551;SDS011;63025;55.472;38.432;2022-08-25T02:49:38;13.93;;;8.93;;
74551;SDS011;63025;55.472;38.432;2022-08-25T02:52:03;13.07;;;9.57;;
74551;SDS011;63025;55.472;38.432;2022-08-25T02:54:29;14.15;;;9.45;;
74551;SDS011;63025;55.472;38.432;2022-08-25T02:56:55;14.00;;;8.90;;
74551;SDS011;63025;55.472;38.432;2022-08-25T02:59:21;14.52;;;9.05;;
74551;SDS011;63025;55.472;38.432;2022-08-25T03:01:47;14.77;;;9.40;;
74551;SDS011;63025;55.472;38.432;2022-08-25T03:04:12;19.50;;;10.38;;
74551;SDS011;63025;55.472;38.432;2022-08-25T03:06:38;14.32;;;9.40;;
74551;SDS011;63025;55.472;38.432;2022-08-25T03:09:05;15.65;;;9.70;;
74551;SDS011;63025;55.472;38.432;2022-08-25T03:11:31;14.40;;;8.90;;
74551;SDS011;63025;55.472;38.432;2022-08-25T03:13:57;16.42;;;9.35;;
74551;SDS011;63025;55.472;38.432;2022-08-25T03:16:23;14.93;;;9.23;;
74551;SDS011;63025;55.472;38.432;2022-08-25T03:18:49;14.77;;;9.10;;
74551;SDS011;63025;55.472;38.432;2022-08-25T03:21:15;15.52;;;8.73;;
74551;SDS011;63025;55.472;38.432;2022-08-25T03:23:42;13.73;;;9.45;;
74551;SDS011;63025;55.472;38.432;2022-08-25T03:26:08;15.77;;;10.25;;
74551;SDS011;63025;55.472;38.432;2022-08-25T03:28:52;14.45;;;9.63;;
74551;SDS011;63025;55.472;38.432;2022-08-25T03:31:20;14.15;;;10.52;;
74551;SDS011;63025;55.472;38.432;2022-08-25T03:33:46;15.77;;;9.88;;
74551;SDS011;63025;55.472;38.432;2022-08-25T03:36:13;15.02;;;10.02;;
74551;SDS011;63025;55.472;38.432;2022-08-25T03:38:39;19.33;;;10.88;;
74551;SDS011;63025;55.472;38.432;2022-08-25T03:41:16;19.60;;;10.60;;
74551;SDS011;63025;55.472;38.432;2022-08-25T03:55:52;18.70;;;10.77;;
74551;SDS011;63025;55.472;38.432;2022-08-25T03:58:18;18.33;;;11.02;;
74551;SDS011;63025;55.472;38.432;2022-08-25T04:00:44;14.77;;;10.27;;
74551;SDS011;63025;55.472;38.432;2022-08-25T04:03:10;18.02;;;11.30;;
74551;SDS011;63025;55.472;38.432;2022-08-25T04:05:35;17.98;;;10.55;;
74551;SDS011;63025;55.472;38.432;2022-08-25T04:08:01;17.63;;;10.48;;
74551;SDS011;63025;55.472;38.432;2022-08-25T04:10:27;21.67;;;13.43;;
74551;SDS011;63025;55.472;38.432;2022-08-25T04:12:53;27.70;;;14.20;;
74551;SDS011;63025;55.472;38.432;2022-08-25T04:15:20;22.15;;;13.77;;
74551;SDS011;63025;55.472;38.432;2022-08-25T04:17:45;21.08;;;13.20;;
74551;SDS011;63025;55.472;38.432;2022-08-25T04:20:11;23.75;;;14.80;;
74551;SDS011;63025;55.472;38.432;2022-08-25T04:22:37;26.58;;;13.52;;
74551;SDS011;63025;55.472;38.432;2022-08-25T04:25:04;23.13;;;13.70;;
74551;SDS011;63025;55.472;38.432;2022-08-25T04:27:30;25.08;;;13.73;;
74551;SDS011;63025;55.472;38.432;2022-08-25T04:29:56;21.98;;;13.40;;
74551;SDS011;63025;55.472;38.432;2022-08-25T04:32:22;21.38;;;13.90;;
74551;SDS011;63025;55.472;38.432;2022-08-25T04:34:47;23.48;;;13.68;;
74551;SDS011;63025;55.472;38.432;2022-08-25T04:37:13;26.70;;;15.10;;
74551;SDS011;63025;55.472;38.432;2022-08-25T04:39:39;21.17;;;14.32;;
74551;SDS011;63025;55.472;38.432;2022-08-25T04:42:05;22.85;;;15.60;;
74551;SDS011;63025;55.472;38.432;2022-08-25T04:44:31;25.45;;;15.30;;
74551;SDS011;63025;55.472;38.432;2022-08-25T04:46:57;28.42;;;15.68;;
74551;SDS011;63025;55.472;38.432;2022-08-25T04:49:23;26.67;;;14.70;;
74551;SDS011;63025;55.472;38.432;2022-08-25T04:51:49;22.95;;;14.15;;
74551;SDS011;63025;55.472;38.432;2022-08-25T04:54:15;26.58;;;14.25;;
74551;SDS011;63025;55.472;38.432;2022-08-25T04:56:42;23.63;;;12.52;;
74551;SDS011;63025;55.472;38.432;2022-08-25T04:59:09;25.83;;;13.30;;
74551;SDS011;63025;55.472;38.432;2022-08-25T05:01:37;27.27;;;14.25;;
74551;SDS011;63025;55.472;38.432;2022-08-25T05:04:04;24.75;;;13.10;;
74551;SDS011;63025;55.472;38.432;2022-08-25T05:06:32;24.10;;;13.57;;
74551;SDS011;63025;55.472;38.432;2022-08-25T05:08:58;20.67;;;12.70;;
74551;SDS011;63025;55.472;38.432;2022-08-25T05:11:26;27.13;;;12.52;;
74551;SDS011;63025;55.472;38.432;2022-08-25T05:13:53;23.20;;;12.85;;
74551;SDS011;63025;55.472;38.432;2022-08-25T05:16:20;23.10;;;12.52;;
74551;SDS011;63025;55.472;38.432;2022-08-25T05:18:47;23.00;;;11.98;;
74551;SDS011;63025;55.472;38.432;2022-08-25T05:21:16;27.17;;;12.63;;
74551;SDS011;63025;55.472;38.432;2022-08-25T05:23:43;21.23;;;12.00;;
74551;SDS011;63025;55.472;38.432;2022-08-25T05:26:12;21.73;;;12.30;;
74551;SDS011;63025;55.472;38.432;2022-08-25T05:28:40;22.88;;;12.32;;
74551;SDS011;63025;55.472;38.432;2022-08-25T05:31:07;20.77;;;12.60;;
74551;SDS011;63025;55.472;38.432;2022-08-25T05:33:34;24.20;;;12.65;;
74551;SDS011;63025;55.472;38.432;2022-08-25T05:36:01;21.63;;;12.20;;
74551;SDS011;63025;55.472;38.432;2022-08-25T05:38:28;20.33;;;12.20;;
74551;SDS011;63025;55.472;38.432;2022-08-25T05:41:02;24.05;;;11.93;;
74551;SDS011;63025;55.472;38.432;2022-08-25T05:43:29;21.20;;;11.93;;
74551;SDS011;63025;55.472;38.432;2022-08-25T05:45:56;20.35;;;12.48;;
74551;SDS011;63025;55.472;38.432;2022-08-25T05:48:23;22.95;;;11.60;;
74551;SDS011;63025;55.472;38.432;2022-08-25T05:50:51;23.35;;;11.30;;
74551;SDS011;63025;55.472;38.432;2022-08-25T05:53:18;17.83;;;10.85;;
74551;SDS011;63025;55.472;38.432;2022-08-25T05:55:45;16.15;;;10.27;;
74551;SDS011;63025;55.472;38.432;2022-08-25T05:58:10;18.73;;;10.80;;
74551;SDS011;63025;55.472;38.432;2022-08-25T06:00:37;17.52;;;10.80;;
74551;SDS011;63025;55.472;38.432;2022-08-25T06:03:03;17.33;;;10.35;;
74551;SDS011;63025;55.472;38.432;2022-08-25T06:05:29;22.35;;;10.68;;
74551;SDS011;63025;55.472;38.432;2022-08-25T06:07:56;18.95;;;10.25;;
74551;SDS011;63025;55.472;38.432;2022-08-25T06:10:22;18.33;;;10.40;;
74551;SDS011;63025;55.472;38.432;2022-08-25T06:12:48;16.60;;;10.15;;
74551;SDS011;63025;55.472;38.432;2022-08-25T06:15:18;16.85;;;9.48;;
74551;SDS011;63025;55.472;38.432;2022-08-25T06:17:45;14.80;;;10.55;;
74551;SDS011;63025;55.472;38.432;2022-08-25T06:20:13;14.60;;;10.40;;
74551;SDS011;63025;55.472;38.432;2022-08-25T06:22:41;17.73;;;10.18;;
74551;SDS011;63025;55.472;38.432;2022-08-25T06:25:07;15.77;;;10.15;;
74551;SDS011;63025;55.472;38.432;2022-08-25T06:27:35;17.83;;;10.70;;
74551;SDS011;63025;55.472;38.432;2022-08-25T06:30:02;19.73;;;10.27;;
74551;SDS011;63025;55.472;38.432;2022-08-25T06:32:30;20.58;;;9.55;;
74551;SDS011;63025;55.472;38.432;2022-08-25T06:35:01;14.18;;;10.10;;
74551;SDS011;63025;55.472;38.432;2022-08-25T06:37:28;15.68;;;10.73;;
74551;SDS011;63025;55.472;38.432;2022-08-25T06:39:54;20.40;;;11.60;;
74551;SDS011;63025;55.472;38.432;2022-08-25T06:42:20;18.67;;;11.98;;
74551;SDS011;63025;55.472;38.432;2022-08-25T06:44:45;20.58;;;11.63;;
74551;SDS011;63025;55.472;38.432;2022-08-25T06:47:11;17.25;;;10.38;;
74551;SDS011;63025;55.472;38.432;2022-08-25T06:49:40;14.70;;;9.63;;
74551;SDS011;63025;55.472;38.432;2022-08-25T06:52:06;18.15;;;9.38;;
74551;SDS011;63025;55.472;38.432;2022-08-25T06:54:33;12.95;;;8.27;;
74551;SDS011;63025;55.472;38.432;2022-08-25T06:56:59;13.88;;;8.68;;
74551;SDS011;63025;55.472;38.432;2022-08-25T06:59:25;11.90;;;8.00;;
74551;SDS011;63025;55.472;38.432;2022-08-25T07:01:51;10.60;;;7.75;;
74551;SDS011;63025;55.472;38.432;2022-08-25T07:04:17;12.93;;;8.00;;
74551;SDS011;63025;55.472;38.432;2022-08-25T07:06:44;14.80;;;8.73;;
74551;SDS011;63025;55.472;38.432;2022-08-25T07:09:11;11.30;;;7.95;;
74551;SDS011;63025;55.472;38.432;2022-08-25T07:11:38;14.30;;;8.52;;
74551;SDS011;63025;55.472;38.432;2022-08-25T07:14:05;18.95;;;8.05;;
74551;SDS011;63025;55.472;38.432;2022-08-25T07:16:33;19.50;;;7.32;;
74551;SDS011;63025;55.472;38.432;2022-08-25T07:19:00;17.50;;;7.97;;
74551;SDS011;63025;55.472;38.432;2022-08-25T07:21:27;12.80;;;7.47;;
74551;SDS011;63025;55.472;38.432;2022-08-25T07:23:53;16.65;;;8.18;;
74551;SDS011;63025;55.472;38.432;2022-08-25T07:26:27;12.88;;;7.57;;
74551;SDS011;63025;55.472;38.432;2022-08-25T07:28:55;11.38;;;7.13;;
74551;SDS011;63025;55.472;38.432;2022-08-25T07:31:23;9.90;;;7.20;;
74551;SDS011;63025;55.472;38.432;2022-08-25T07:33:49;11.68;;;7.97;;
74551;SDS011;63025;55.472;38.432;2022-08-25T07:36:34;11.32;;;6.97;;
74551;SDS011;63025;55.472;38.432;2022-08-25T07:39:00;10.27;;;7.40;;
74551;SDS011;63025;55.472;38.432;2022-08-25T07:41:37;10.85;;;7.82;;
74551;SDS011;63025;55.472;38.432;2022-08-25T07:44:04;13.73;;;10.02;;
74551;SDS011;63025;55.472;38.432;2022-08-25T07:46:31;18.23;;;12.30;;
74551;SDS011;63025;55.472;38.432;2022-08-25T07:48:56;25.25;;;18.75;;
74551;SDS011;63025;55.472;38.432;2022-08-25T07:51:22;24.27;;;18.33;;
74551;SDS011;63025;55.472;38.432;2022-08-25T07:53:48;26.75;;;20.83;;
74551;SDS011;63025;55.472;38.432;2022-08-25T07:56:14;29.50;;;21.15;;
74551;SDS011;63025;55.472;38.432;2022-08-25T07:58:41;31.85;;;25.25;;
74551;SDS011;63025;55.472;38.432;2022-08-25T08:01:14;26.80;;;20.02;;
74551;SDS011;63025;55.472;38.432;2022-08-25T08:03:42;26.13;;;16.92;;
74551;SDS011;63025;55.472;38.432;2022-08-25T08:06:09;14.32;;;11.32;;
74551;SDS011;63025;55.472;38.432;2022-08-25T08:08:40;17.77;;;13.48;;
74551;SDS011;63025;55.472;38.432;2022-08-25T08:11:24;18.38;;;11.25;;
74551;SDS011;63025;55.472;38.432;2022-08-25T08:13:53;17.40;;;11.95;;
74551;SDS011;63025;55.472;38.432;2022-08-25T08:16:21;16.65;;;10.65;;
74551;SDS011;63025;55.472;38.432;2022-08-25T08:18:48;17.30;;;11.80;;
74551;SDS011;63025;55.472;38.432;2022-08-25T08:21:16;22.15;;;13.57;;
74551;SDS011;63025;55.472;38.432;2022-08-25T08:23:47;15.23;;;9.95;;
74551;SDS011;63025;55.472;38.432;2022-08-25T08:26:15;17.48;;;12.35;;
74551;SDS011;63025;55.472;38.432;2022-08-25T08:28:41;15.95;;;12.63;;
74551;SDS011;63025;55.472;38.432;2022-08-25T08:31:07;16.02;;;12.70;;
74551;SDS011;63025;55.472;38.432;2022-08-25T08:33:33;19.65;;;10.82;;
74551;SDS011;63025;55.472;38.432;2022-08-25T08:36:06;20.20;;;12.13;;
74551;SDS011;63025;55.472;38.432;2022-08-25T08:38:34;14.40;;;10.90;;
74551;SDS011;63025;55.472;38.432;2022-08-25T08:41:04;16.17;;;10.50;;
74551;SDS011;63025;55.472;38.432;2022-08-25T08:43:52;21.75;;;10.45;;
74551;SDS011;63025;55.472;38.432;2022-08-25T08:46:34;17.10;;;9.82;;
74551;SDS011;63025;55.472;38.432;2022-08-25T08:52:17;23.27;;;11.95;;
74551;SDS011;63025;55.472;38.432;2022-08-25T08:54:47;14.85;;;11.35;;
74551;SDS011;63025;55.472;38.432;2022-08-25T08:57:21;18.70;;;12.70;;
74551;SDS011;63025;55.472;38.432;2022-08-25T08:59:57;18.67;;;11.55;;
74551;SDS011;63025;55.472;38.432;2022-08-25T09:02:36;15.73;;;10.63;;
74551;SDS011;63025;55.472;38.432;2022-08-25T09:05:10;15.98;;;11.23;;
74551;SDS011;63025;55.472;38.432;2022-08-25T09:08:22;21.15;;;12.27;;
74551;SDS011;63025;55.472;38.432;2022-08-25T09:13:24;22.50;;;11.20;;
74551;SDS011;63025;55.472;38.432;2022-08-25T09:16:10;19.95;;;10.10;;
74551;SDS011;63025;55.472;38.432;2022-08-25T09:21:52;19.92;;;12.43;;
74551;SDS011;63025;55.472;38.432;2022-08-25T09:30:27;24.20;;;12.30;;
74551;SDS011;63025;55.472;38.432;2022-08-25T09:33:04;24.33;;;13.45;;
74551;SDS011;63025;55.472;38.432;2022-08-25T09:35:33;24.27;;;13.77;;
74551;SDS011;63025;55.472;38.432;2022-08-25T09:40:27;18.45;;;13.60;;
74551;SDS011;63025;55.472;38.432;2022-08-25T09:42:56;18.27;;;12.35;;
74551;SDS011;63025;55.472;38.432;2022-08-25T09:45:42;21.20;;;11.77;;
74551;SDS011;63025;55.472;38.432;2022-08-25T09:48:23;21.13;;;12.68;;
74551;SDS011;63025;55.472;38.432;2022-08-25T09:50:52;19.10;;;14.65;;
74551;SDS011;63025;55.472;38.432;2022-08-25T09:55:54;16.88;;;13.18;;
74551;SDS011;63025;55.472;38.432;2022-08-25T09:58:28;19.00;;;13.25;;
74551;SDS011;63025;55.472;38.432;2022-08-25T10:04:11;22.67;;;17.45;;
74551;SDS011;63025;55.472;38.432;2022-08-25T10:06:43;24.23;;;16.60;;
74551;SDS011;63025;55.472;38.432;2022-08-25T10:09:12;20.27;;;13.48;;
74551;SDS011;63025;55.472;38.432;2022-08-25T10:11:49;16.48;;;12.98;;
74551;SDS011;63025;55.472;38.432;2022-08-25T10:14:37;24.50;;;16.88;;
74551;SDS011;63025;55.472;38.432;2022-08-25T10:19:50;29.73;;;23.15;;
74551;SDS011;63025;55.472;38.432;2022-08-25T10:22:21;23.70;;;20.42;;
74551;SDS011;63025;55.472;38.432;2022-08-25T10:24:49;25.27;;;21.10;;
74551;SDS011;63025;55.472;38.432;2022-08-25T10:27:17;24.95;;;19.73;;
74551;SDS011;63025;55.472;38.432;2022-08-25T10:30:06;24.80;;;20.52;;
74551;SDS011;63025;55.472;38.432;2022-08-25T10:35:14;30.17;;;25.40;;
74551;SDS011;63025;55.472;38.432;2022-08-25T10:40:37;31.63;;;24.77;;
74551;SDS011;63025;55.472;38.432;2022-08-25T10:43:19;31.73;;;24.48;;
74551;SDS011;63025;55.472;38.432;2022-08-25T10:46:14;33.40;;;26.92;;
74551;SDS011;63025;55.472;38.432;2022-08-25T10:49:03;33.88;;;27.85;;
74551;SDS011;63025;55.472;38.432;2022-08-25T10:51:37;34.30;;;27.40;;
74551;SDS011;63025;55.472;38.432;2022-08-25T11:08:30;28.90;;;24.73;;
74551;SDS011;63025;55.472;38.432;2022-08-25T11:11:02;30.30;;;27.00;;
74551;SDS011;63025;55.472;38.432;2022-08-25T11:13:44;29.42;;;23.63;;
74551;SDS011;63025;55.472;38.432;2022-08-25T11:16:24;20.33;;;16.92;;
74551;SDS011;63025;55.472;38.432;2022-08-25T11:19:02;19.13;;;15.23;;
74551;SDS011;63025;55.472;38.432;2022-08-25T11:21:51;26.13;;;22.10;;
74551;SDS011;63025;55.472;38.432;2022-08-25T11:27:23;23.95;;;21.13;;
74551;SDS011;63025;55.472;38.432;2022-08-25T11:30:12;29.27;;;21.13;;
74551;SDS011;63025;55.472;38.432;2022-08-25T11:32:39;19.13;;;16.35;;
74551;SDS011;63025;55.472;38.432;2022-08-25T11:35:11;21.05;;;17.13;;
74551;SDS011;63025;55.472;38.432;2022-08-25T11:37:44;23.58;;;17.48;;
74551;SDS011;63025;55.472;38.432;2022-08-25T11:40:35;22.52;;;17.90;;
74551;SDS011;63025;55.472;38.432;2022-08-25T11:51:27;18.42;;;15.10;;
74551;SDS011;63025;55.472;38.432;2022-08-25T11:56:41;17.67;;;13.27;;
74551;SDS011;63025;55.472;38.432;2022-08-25T11:59:19;14.43;;;12.93;;
74551;SDS011;63025;55.472;38.432;2022-08-25T12:05:06;16.98;;;12.75;;
74551;SDS011;63025;55.472;38.432;2022-08-25T12:10:59;15.88;;;12.73;;
74551;SDS011;63025;55.472;38.432;2022-08-25T12:16:02;20.17;;;13.20;;
74551;SDS011;63025;55.472;38.432;2022-08-25T12:25:53;17.92;;;11.55;;
74551;SDS011;63025;55.472;38.432;2022-08-25T12:36:01;13.38;;;11.82;;
74551;SDS011;63025;55.472;38.432;2022-08-25T12:38:33;17.77;;;12.75;;
74551;SDS011;63025;55.472;38.432;2022-08-25T12:43:36;15.23;;;12.75;;
74551;SDS011;63025;55.472;38.432;2022-08-25T12:49:31;15.15;;;11.50;;
74551;SDS011;63025;55.472;38.432;2022-08-25T12:52:06;17.95;;;11.55;;
74551;SDS011;63025;55.472;38.432;2022-08-25T12:54:47;15.70;;;11.70;;
74551;SDS011;63025;55.472;38.432;2022-08-25T12:57:22;14.15;;;11.32;;
74551;SDS011;63025;55.472;38.432;2022-08-25T12:59:49;15.38;;;11.15;;
74551;SDS011;63025;55.472;38.432;2022-08-25T13:16:16;13.55;;;11.48;;
74551;SDS011;63025;55.472;38.432;2022-08-25T13:18:47;13.80;;;10.90;;
74551;SDS011;63025;55.472;38.432;2022-08-25T13:21:17;12.00;;;10.75;;
74551;SDS011;63025;55.472;38.432;2022-08-25T13:23:50;14.73;;;11.18;;
74551;SDS011;63025;55.472;38.432;2022-08-25T13:26:22;12.15;;;9.82;;
74551;SDS011;63025;55.472;38.432;2022-08-25T13:28:56;15.02;;;10.13;;
74551;SDS011;63025;55.472;38.432;2022-08-25T13:31:24;15.70;;;9.90;;
74551;SDS011;63025;55.472;38.432;2022-08-25T13:33:56;15.98;;;10.57;;
74551;SDS011;63025;55.472;38.432;2022-08-25T13:36:24;12.52;;;10.18;;
74551;SDS011;63025;55.472;38.432;2022-08-25T13:39:19;14.63;;;9.98;;
74551;SDS011;63025;55.472;38.432;2022-08-25T13:41:49;13.70;;;11.23;;
74551;SDS011;63025;55.472;38.432;2022-08-25T13:44:18;15.38;;;10.77;;
74551;SDS011;63025;55.472;38.432;2022-08-25T13:46:45;15.43;;;10.70;;
74551;SDS011;63025;55.472;38.432;2022-08-25T13:49:12;15.18;;;11.65;;
74551;SDS011;63025;55.472;38.432;2022-08-25T13:51:50;18.20;;;11.20;;
74551;SDS011;63025;55.472;38.432;2022-08-25T13:54:26;13.90;;;11.13;;
74551;SDS011;63025;55.472;38.432;2022-08-25T13:57:01;19.55;;;14.60;;
74551;SDS011;63025;55.472;38.432;2022-08-25T13:59:32;19.60;;;13.07;;
74551;SDS011;63025;55.472;38.432;2022-08-25T14:02:02;18.08;;;14.20;;
74551;SDS011;63025;55.472;38.432;2022-08-25T14:04:30;18.75;;;13.60;;
74551;SDS011;63025;55.472;38.432;2022-08-25T14:09:49;14.45;;;11.63;;
74551;SDS011;63025;55.472;38.432;2022-08-25T14:12:29;15.05;;;11.20;;
74551;SDS011;63025;55.472;38.432;2022-08-25T14:18:04;16.08;;;11.20;;
74551;SDS011;63025;55.472;38.432;2022-08-25T14:20:33;16.77;;;10.85;;
74551;SDS011;63025;55.472;38.432;2022-08-25T14:23:07;14.90;;;11.20;;
74551;SDS011;63025;55.472;38.432;2022-08-25T14:25:38;15.43;;;10.60;;
74551;SDS011;63025;55.472;38.432;2022-08-25T14:28:05;18.45;;;11.05;;
74551;SDS011;63025;55.472;38.432;2022-08-25T14:30:35;14.90;;;10.90;;
74551;SDS011;63025;55.472;38.432;2022-08-25T14:33:04;14.27;;;10.80;;
74551;SDS011;63025;55.472;38.432;2022-08-25T14:35:30;14.27;;;10.68;;
74551;SDS011;63025;55.472;38.432;2022-08-25T14:37:56;15.48;;;10.88;;
74551;SDS011;63025;55.472;38.432;2022-08-25T14:40:22;15.45;;;10.60;;
74551;SDS011;63025;55.472;38.432;2022-08-25T14:42:48;14.52;;;10.68;;
74551;SDS011;63025;55.472;38.432;2022-08-25T14:45:14;14.02;;;10.98;;
74551;SDS011;63025;55.472;38.432;2022-08-25T14:47:42;18.10;;;10.77;;
74551;SDS011;63025;55.472;38.432;2022-08-25T14:50:10;19.58;;;10.95;;
74551;SDS011;63025;55.472;38.432;2022-08-25T14:52:39;14.48;;;10.40;;
74551;SDS011;63025;55.472;38.432;2022-08-25T14:55:06;18.52;;;11.13;;
74551;SDS011;63025;55.472;38.432;2022-08-25T14:57:33;16.02;;;10.55;;
74551;SDS011;63025;55.472;38.432;2022-08-25T15:00:00;13.70;;;10.48;;
74551;SDS011;63025;55.472;38.432;2022-08-25T15:02:27;14.98;;;10.68;;
74551;SDS011;63025;55.472;38.432;2022-08-25T15:04:55;17.55;;;10.65;;
74551;SDS011;63025;55.472;38.432;2022-08-25T15:07:31;15.30;;;10.73;;
74551;SDS011;63025;55.472;38.432;2022-08-25T15:10:16;15.30;;;10.68;;
74551;SDS011;63025;55.472;38.432;2022-08-25T15:12:42;14.20;;;10.77;;
74551;SDS011;63025;55.472;38.432;2022-08-25T15:15:08;20.85;;;11.35;;
74551;SDS011;63025;55.472;38.432;2022-08-25T15:17:34;20.92;;;10.88;;
74551;SDS011;63025;55.472;38.432;2022-08-25T15:20:01;25.75;;;11.32;;
74551;SDS011;63025;55.472;38.432;2022-08-25T15:22:28;16.58;;;11.45;;
74551;SDS011;63025;55.472;38.432;2022-08-25T15:24:54;18.10;;;10.48;;
74551;SDS011;63025;55.472;38.432;2022-08-25T15:27:20;24.00;;;11.55;;
74551;SDS011;63025;55.472;38.432;2022-08-25T15:29:46;19.70;;;11.48;;
74551;SDS011;63025;55.472;38.432;2022-08-25T15:32:12;17.85;;;10.73;;
74551;SDS011;63025;55.472;38.432;2022-08-25T15:34:39;18.00;;;11.82;;
74551;SDS011;63025;55.472;38.432;2022-08-25T15:37:06;17.23;;;10.77;;
74551;SDS011;63025;55.472;38.432;2022-08-25T15:39:35;16.08;;;11.52;;
74551;SDS011;63025;55.472;38.432;2022-08-25T15:42:01;16.75;;;11.60;;
74551;SDS011;63025;55.472;38.432;2022-08-25T15:44:27;17.50;;;10.52;;
74551;SDS011;63025;55.472;38.432;2022-08-25T15:46:53;17.70;;;10.75;;
74551;SDS011;63025;55.472;38.432;2022-08-25T15:49:19;16.45;;;11.77;;
74551;SDS011;63025;55.472;38.432;2022-08-25T15:51:45;18.63;;;11.52;;
74551;SDS011;63025;55.472;38.432;2022-08-25T15:54:10;16.83;;;11.80;;
74551;SDS011;63025;55.472;38.432;2022-08-25T15:56:38;16.80;;;11.63;;
74551;SDS011;63025;55.472;38.432;2022-08-25T15:59:05;17.40;;;11.63;;
74551;SDS011;63025;55.472;38.432;2022-08-25T16:01:31;15.77;;;11.50;;
74551;SDS011;63025;55.472;38.432;2022-08-25T16:03:57;17.33;;;11.40;;
74551;SDS011;63025;55.472;38.432;2022-08-25T16:06:24;18.40;;;12.38;;
74551;SDS011;63025;55.472;38.432;2022-08-25T16:08:50;18.80;;;11.90;;
74551;SDS011;63025;55.472;38.432;2022-08-25T16:11:17;16.70;;;12.10;;
74551;SDS011;63025;55.472;38.432;2022-08-25T16:13:49;16.95;;;13.90;;
74551;SDS011;63025;55.472;38.432;2022-08-25T16:16:16;23.60;;;14.10;;
74551;SDS011;63025;55.472;38.432;2022-08-25T16:18:42;19.67;;;16.08;;
74551;SDS011;63025;55.472;38.432;2022-08-25T16:21:10;26.35;;;17.00;;
74551;SDS011;63025;55.472;38.432;2022-08-25T16:23:38;29.30;;;20.25;;
74551;SDS011;63025;55.472;38.432;2022-08-25T16:26:05;30.73;;;20.52;;
74551;SDS011;63025;55.472;38.432;2022-08-25T16:28:36;34.90;;;22.13;;
74551;SDS011;63025;55.472;38.432;2022-08-25T16:31:02;34.33;;;20.90;;
74551;SDS011;63025;55.472;38.432;2022-08-25T16:33:29;33.65;;;21.73;;